Time;durP1;ratioP1;P1;durP2;ratioP2;P2;SDS_P1;SDS_P2;PMS_P1;PMS_P2;Temp;Humidity;BMP_temperature;BMP_pressure;BME280_temperature;BME280_humidity;BME280_pressure;Samples;Min_cycle;Max_cycle;Signal;HPM_P1;HPM_P2
2022/06/13 00:01:43;;;;;;;4.97;1.50;;;;;;;;;;8356311;28;20985;-60
2022/06/13 00:05:44;;;;;;;6.72;1.50;;;;;;;;;;8357782;28;20330;-61
2022/06/13 00:09:44;;;;;;;4.88;1.58;;;;;;;;;;8358763;28;21005;-60
2022/06/13 00:13:45;;;;;;;5.95;1.80;;;;;;;;;;8359177;28;20493;-61
2022/06/13 00:17:45;;;;;;;5.80;1.50;;;;;;;;;;8357180;28;20037;-60
2022/06/13 00:21:46;;;;;;;6.50;1.30;;;;;;;;;;8357433;28;20032;-60
2022/06/13 00:25:46;;;;;;;3.80;1.42;;;;;;;;;;8357999;28;20028;-60
2022/06/13 00:29:49;;;;;;;6.75;1.55;;;;;;;;;;8355999;28;20047;-60
2022/06/13 00:33:49;;;;;;;10.90;1.80;;;;;;;;;;8357543;28;20037;-60
2022/06/13 00:37:50;;;;;;;6.38;1.65;;;;;;;;;;8355656;28;20032;-60
2022/06/13 00:41:50;;;;;;;5.03;1.65;;;;;;;;;;8356262;28;20021;-60
2022/06/13 00:45:50;;;;;;;5.83;1.50;;;;;;;;;;8353954;28;20041;-61
2022/06/13 00:49:50;;;;;;;7.05;1.80;;;;;;;;;;8355844;28;20320;-61
2022/06/13 00:53:51;;;;;;;5.82;1.50;;;;;;;;;;8356910;28;20040;-61
2022/06/13 00:57:52;;;;;;;8.18;2.20;;;;;;;;;;8359306;28;20059;-60
2022/06/13 01:01:53;;;;;;;6.32;1.90;;;;;;;;;;8353779;28;20040;-60
2022/06/13 01:05:55;;;;;;;5.10;1.77;;;;;;;;;;8357338;28;20024;-61
2022/06/13 01:14:18;;;;;;;7.38;1.50;;;;;;;;;;8354257;28;20216;-59
2022/06/13 01:18:18;;;;;;;5.55;1.85;;;;;;;;;;8353287;28;20702;-59
2022/06/13 01:22:24;;;;;;;4.88;1.60;;;;;;;;;;8353826;28;20097;-60
2022/06/13 01:26:39;;;;;;;5.55;1.88;;;;;;;;;;8357196;28;20059;-60
2022/06/13 01:30:59;;;;;;;3.30;1.75;;;;;;;;;;8353657;28;20032;-60
2022/06/13 01:34:59;;;;;;;5.28;1.88;;;;;;;;;;8355313;28;20031;-59
2022/06/13 01:39:02;;;;;;;7.28;1.63;;;;;;;;;;8354717;28;20020;-60
2022/06/13 01:43:07;;;;;;;5.85;1.75;;;;;;;;;;8356676;28;20028;-60
2022/06/13 01:47:13;;;;;;;6.60;2.30;;;;;;;;;;8352750;28;20033;-60
2022/06/13 01:51:20;;;;;;;4.18;1.75;;;;;;;;;;8357158;28;20707;-60
2022/06/13 01:55:28;;;;;;;10.32;2.00;;;;;;;;;;8354209;28;20028;-59
2022/06/13 01:59:28;;;;;;;5.22;1.73;;;;;;;;;;8354494;28;20532;-60
2022/06/13 02:03:30;;;;;;;6.22;2.08;;;;;;;;;;8353777;28;20044;-60
2022/06/13 02:07:33;;;;;;;6.05;1.92;;;;;;;;;;8355864;28;20036;-59
2022/06/13 02:11:37;;;;;;;6.38;2.00;;;;;;;;;;8353837;28;20469;-60
2022/06/13 02:15:43;;;;;;;9.68;2.10;;;;;;;;;;8352609;28;20071;-59
2022/06/13 02:19:50;;;;;;;5.13;2.00;;;;;;;;;;8351892;28;20196;-59
2022/06/13 02:23:51;;;;;;;5.22;2.00;;;;;;;;;;8353516;28;20040;-60
2022/06/13 02:27:56;;;;;;;5.00;2.03;;;;;;;;;;8355282;28;20570;-60
2022/06/13 02:32:00;;;;;;;6.10;1.67;;;;;;;;;;8352174;28;20044;-60
2022/06/13 02:36:13;;;;;;;7.40;1.98;;;;;;;;;;8354080;28;20052;-59
2022/06/13 02:40:17;;;;;;;3.47;1.77;;;;;;;;;;8349563;28;20106;-59
2022/06/13 02:44:20;;;;;;;7.47;2.00;;;;;;;;;;8354599;28;20047;-60
2022/06/13 02:48:24;;;;;;;6.05;1.90;;;;;;;;;;8352101;28;20039;-59
2022/06/13 02:52:28;;;;;;;6.93;1.95;;;;;;;;;;8355212;28;20056;-60
2022/06/13 03:01:25;;;;;;;7.95;1.95;;;;;;;;;;8353916;28;20131;-60
2022/06/13 03:05:44;;;;;;;5.35;2.10;;;;;;;;;;8353695;28;20559;-60
2022/06/13 03:09:56;;;;;;;3.72;1.52;;;;;;;;;;8355393;28;20044;-59
2022/06/13 03:14:07;;;;;;;4.47;1.95;;;;;;;;;;8350581;28;20032;-59
2022/06/13 03:18:11;;;;;;;5.07;2.10;;;;;;;;;;8352433;28;20572;-60
2022/06/13 03:22:24;;;;;;;4.40;1.90;;;;;;;;;;8351082;28;20027;-60
2022/06/13 03:26:29;;;;;;;5.18;2.28;;;;;;;;;;8352885;28;20061;-60
2022/06/13 03:30:30;;;;;;;6.68;2.08;;;;;;;;;;8350306;28;20111;-61
2022/06/13 03:34:37;;;;;;;4.85;1.98;;;;;;;;;;8351251;28;20059;-60
2022/06/13 03:38:40;;;;;;;4.25;2.03;;;;;;;;;;8351820;28;20510;-60
2022/06/13 03:42:43;;;;;;;3.77;1.70;;;;;;;;;;8351442;28;20114;-60
2022/06/13 03:46:53;;;;;;;5.03;1.80;;;;;;;;;;8351362;28;20040;-60
2022/06/13 03:50:55;;;;;;;5.75;1.48;;;;;;;;;;8352059;28;20024;-60
2022/06/13 03:55:18;;;;;;;6.32;1.90;;;;;;;;;;8353857;28;20591;-59
2022/06/13 03:59:35;;;;;;;8.05;1.70;;;;;;;;;;8341707;28;20029;-59
2022/06/13 04:03:35;;;;;;;5.53;1.65;;;;;;;;;;8352894;28;20504;-60
2022/06/13 04:07:36;;;;;;;4.35;1.92;;;;;;;;;;8352776;28;20926;-61
2022/06/13 04:11:36;;;;;;;4.53;1.95;;;;;;;;;;8353099;28;20475;-60
2022/06/13 04:15:39;;;;;;;4.72;1.80;;;;;;;;;;8351089;28;20055;-60
2022/06/13 04:19:39;;;;;;;4.67;1.80;;;;;;;;;;8354305;28;20462;-61
2022/06/13 04:23:43;;;;;;;6.47;2.10;;;;;;;;;;8358316;28;20064;-60
2022/06/13 04:27:49;;;;;;;4.43;1.80;;;;;;;;;;8359039;28;20051;-61
2022/06/13 04:31:52;;;;;;;4.97;1.70;;;;;;;;;;8358114;28;20043;-60
2022/06/13 04:35:53;;;;;;;5.95;1.90;;;;;;;;;;8356923;28;20021;-60
2022/06/13 04:39:58;;;;;;;5.22;1.80;;;;;;;;;;8356375;28;20481;-60
2022/06/13 04:44:01;;;;;;;3.97;2.22;;;;;;;;;;8358377;28;20222;-60
2022/06/13 04:48:01;;;;;;;6.88;2.30;;;;;;;;;;8358033;28;20094;-60
2022/06/13 04:52:13;;;;;;;3.58;1.75;;;;;;;;;;8351409;28;20024;-59
2022/06/13 04:56:14;;;;;;;4.82;1.95;;;;;;;;;;8355762;28;20020;-60
2022/06/13 05:00:14;;;;;;;4.83;1.87;;;;;;;;;;8352280;28;20066;-60
2022/06/13 05:04:24;;;;;;;4.50;1.95;;;;;;;;;;8355767;28;20411;-60
2022/06/13 05:08:27;;;;;;;6.72;2.38;;;;;;;;;;8353635;28;20035;-60
2022/06/13 05:12:32;;;;;;;6.80;2.28;;;;;;;;;;8356143;28;20039;-60
2022/06/13 05:16:39;;;;;;;5.53;2.10;;;;;;;;;;8356108;28;20097;-60
2022/06/13 05:20:45;;;;;;;5.55;1.90;;;;;;;;;;8352341;28;20111;-61
2022/06/13 05:24:51;;;;;;;6.47;2.13;;;;;;;;;;8352978;28;20059;-60
2022/06/13 05:28:51;;;;;;;4.80;1.70;;;;;;;;;;8350634;28;20567;-61
2022/06/13 05:32:52;;;;;;;5.35;1.70;;;;;;;;;;8353795;28;20041;-60
2022/06/13 05:36:52;;;;;;;5.15;2.00;;;;;;;;;;8355643;28;20103;-61
2022/06/13 05:40:53;;;;;;;6.67;2.10;;;;;;;;;;8350909;28;20036;-61
2022/06/13 05:44:53;;;;;;;5.53;1.83;;;;;;;;;;8352874;28;20477;-61
2022/06/13 05:48:53;;;;;;;5.72;1.60;;;;;;;;;;8351407;28;20347;-60
2022/06/13 05:52:54;;;;;;;6.57;1.97;;;;;;;;;;8354056;28;20029;-60
2022/06/13 05:56:55;;;;;;;4.70;1.90;;;;;;;;;;8353734;28;20753;-61
2022/06/13 06:01:00;;;;;;;4.70;1.85;;;;;;;;;;8351361;28;20039;-61
2022/06/13 06:05:01;;;;;;;7.68;2.30;;;;;;;;;;8356264;28;20123;-61
2022/06/13 06:09:01;;;;;;;4.20;1.90;;;;;;;;;;8352470;28;20598;-60
2022/06/13 06:13:02;;;;;;;3.50;1.73;;;;;;;;;;8352554;28;20028;-60
2022/06/13 06:17:02;;;;;;;6.33;1.80;;;;;;;;;;8354284;28;20033;-61
2022/06/13 06:21:02;;;;;;;4.73;1.83;;;;;;;;;;8350998;28;20106;-60
2022/06/13 06:25:02;;;;;;;3.47;1.27;;;;;;;;;;8354940;28;20035;-61
2022/06/13 06:29:03;;;;;;;4.17;1.80;;;;;;;;;;8353918;28;20809;-60
2022/06/13 06:33:03;;;;;;;4.22;1.60;;;;;;;;;;8352075;28;20115;-61
2022/06/13 06:37:03;;;;;;;3.30;1.55;;;;;;;;;;8353760;28;20016;-61
2022/06/13 06:41:03;;;;;;;3.40;1.83;;;;;;;;;;8351348;28;20070;-61
2022/06/13 06:45:04;;;;;;;4.32;1.80;;;;;;;;;;8353399;28;20107;-61
2022/06/13 06:49:04;;;;;;;3.55;1.67;;;;;;;;;;8351367;28;20913;-61
2022/06/13 06:53:04;;;;;;;3.05;1.58;;;;;;;;;;8350631;28;20021;-61
2022/06/13 07:01:23;;;;;;;3.70;1.60;;;;;;;;;;8352663;28;20876;-61
2022/06/13 07:05:23;;;;;;;4.97;1.83;;;;;;;;;;8352608;28;20021;-61
2022/06/13 07:09:24;;;;;;;3.97;1.70;;;;;;;;;;8353602;28;20275;-61
2022/06/13 07:13:24;;;;;;;4.00;1.57;;;;;;;;;;8348584;28;20064;-61
2022/06/13 07:17:26;;;;;;;3.38;1.60;;;;;;;;;;8353227;28;20036;-62
2022/06/13 07:21:26;;;;;;;5.17;1.90;;;;;;;;;;8351962;28;20764;-61
2022/06/13 07:25:27;;;;;;;3.83;1.35;;;;;;;;;;8351730;28;20075;-61
2022/06/13 07:29:27;;;;;;;3.72;1.63;;;;;;;;;;8352895;28;20071;-61
2022/06/13 07:33:28;;;;;;;5.80;1.55;;;;;;;;;;8351865;28;20281;-61
2022/06/13 07:41:48;;;;;;;3.13;1.42;;;;;;;;;;8349027;28;20492;-61
2022/06/13 07:45:48;;;;;;;5.85;1.75;;;;;;;;;;8351488;28;20080;-61
2022/06/13 07:49:48;;;;;;;3.33;1.60;;;;;;;;;;8348609;28;20653;-61
2022/06/13 07:53:49;;;;;;;4.30;1.67;;;;;;;;;;8353564;28;20511;-61
2022/06/13 07:57:49;;;;;;;4.35;1.92;;;;;;;;;;8358311;28;20120;-61
2022/06/13 08:01:49;;;;;;;3.35;1.80;;;;;;;;;;8354113;28;20596;-61
2022/06/13 08:05:50;;;;;;;3.33;1.70;;;;;;;;;;8357152;28;20163;-61
2022/06/13 08:09:51;;;;;;;2.67;1.30;;;;;;;;;;8354970;28;20107;-61
2022/06/13 08:13:51;;;;;;;6.43;1.73;;;;;;;;;;8357756;28;20036;-61
2022/06/13 08:17:51;;;;;;;5.07;1.80;;;;;;;;;;8357515;28;20146;-61
2022/06/13 08:21:51;;;;;;;3.50;1.50;;;;;;;;;;8356227;28;20044;-61
2022/06/13 08:25:51;;;;;;;2.43;1.50;;;;;;;;;;8356653;28;20039;-61
2022/06/13 08:29:52;;;;;;;3.60;1.60;;;;;;;;;;8357431;28;20496;-61
2022/06/13 08:33:53;;;;;;;4.82;1.50;;;;;;;;;;8354884;28;20194;-61
2022/06/13 08:37:53;;;;;;;4.60;1.40;;;;;;;;;;8356810;28;20021;-61
2022/06/13 08:41:58;;;;;;;2.53;1.35;;;;;;;;;;8354711;28;20579;-61
2022/06/13 08:46:07;;;;;;;4.03;1.80;;;;;;;;;;8356332;28;20028;-61
2022/06/13 08:50:07;;;;;;;2.60;1.40;;;;;;;;;;8357084;28;20020;-61
2022/06/13 08:54:09;;;;;;;2.78;1.45;;;;;;;;;;8354684;28;20585;-61
2022/06/13 08:58:29;;;;;;;3.13;1.50;;;;;;;;;;8357505;28;20048;-61
2022/06/13 09:02:40;;;;;;;3.15;1.55;;;;;;;;;;8312126;28;20040;-61
2022/06/13 09:06:52;;;;;;;3.92;1.77;;;;;;;;;;8355801;28;20021;-61
2022/06/13 09:11:15;;;;;;;4.00;1.38;;;;;;;;;;8355922;28;20111;-61
2022/06/13 09:15:19;;;;;;;2.40;1.17;;;;;;;;;;8352808;28;20391;-61
2022/06/13 09:19:23;;;;;;;4.53;1.70;;;;;;;;;;8356688;28;20089;-61
2022/06/13 09:23:30;;;;;;;4.65;1.70;;;;;;;;;;8354739;28;20435;-61
2022/06/13 09:27:34;;;;;;;4.35;1.55;;;;;;;;;;8354554;28;20780;-61
2022/06/13 09:31:40;;;;;;;4.22;1.60;;;;;;;;;;8353104;28;20048;-62
2022/06/13 09:35:46;;;;;;;4.68;1.80;;;;;;;;;;8353279;28;21094;-61
2022/06/13 09:39:46;;;;;;;4.97;1.30;;;;;;;;;;8357095;28;20499;-61
2022/06/13 09:43:49;;;;;;;2.95;1.45;;;;;;;;;;8353461;28;20035;-61
2022/06/13 09:47:56;;;;;;;3.28;1.63;;;;;;;;;;8354289;28;20498;-61
2022/06/13 09:52:09;;;;;;;5.20;1.50;;;;;;;;;;8354671;28;20028;-61
2022/06/13 09:56:13;;;;;;;2.42;1.40;;;;;;;;;;8353115;28;20107;-61
2022/06/13 10:00:22;;;;;;;3.00;1.50;;;;;;;;;;8349181;28;20147;-61
2022/06/13 10:04:44;;;;;;;5.40;1.50;;;;;;;;;;8353495;28;20028;-61
2022/06/13 10:08:48;;;;;;;4.78;1.58;;;;;;;;;;8352605;28;20024;-62
2022/06/13 10:12:57;;;;;;;3.45;1.33;;;;;;;;;;8350368;28;20032;-61
2022/06/13 10:17:10;;;;;;;4.55;1.50;;;;;;;;;;8353445;28;20131;-61
2022/06/13 10:21:10;;;;;;;5.53;1.65;;;;;;;;;;8351721;28;20131;-61
2022/06/13 10:25:10;;;;;;;2.42;1.20;;;;;;;;;;8353236;28;20313;-61
2022/06/13 10:29:16;;;;;;;2.22;1.20;;;;;;;;;;8351110;28;20063;-61
2022/06/13 10:33:16;;;;;;;4.00;1.48;;;;;;;;;;8350652;28;20728;-62
2022/06/13 10:37:21;;;;;;;4.32;1.50;;;;;;;;;;8351907;28;20024;-61
2022/06/13 10:41:23;;;;;;;2.78;1.40;;;;;;;;;;8352029;28;20024;-61
2022/06/13 10:45:23;;;;;;;5.30;1.27;;;;;;;;;;8352682;28;20037;-61
2022/06/13 10:49:25;;;;;;;2.70;1.40;;;;;;;;;;8352416;28;20025;-61
2022/06/13 10:53:27;;;;;;;3.67;1.38;;;;;;;;;;8349723;28;20557;-61
2022/06/13 10:57:30;;;;;;;3.50;1.40;;;;;;;;;;8353826;28;20568;-61
2022/06/13 11:01:30;;;;;;;4.05;1.50;;;;;;;;;;8351710;28;20064;-60
2022/06/13 11:05:31;;;;;;;3.33;1.25;;;;;;;;;;8350959;28;20024;-60
2022/06/13 11:09:39;;;;;;;2.83;1.30;;;;;;;;;;8351714;28;20400;-61
2022/06/13 11:13:39;;;;;;;4.18;1.70;;;;;;;;;;8352112;28;20017;-61
2022/06/13 11:31:08;;;;;;;5.25;1.73;;;;;;;;;;8354437;28;20047;-61
2022/06/13 11:35:26;;;;;;;2.95;1.35;;;;;;;;;;8360202;28;20024;-61
2022/06/13 11:39:31;;;;;;;5.90;1.70;;;;;;;;;;8357147;28;20491;-60
2022/06/13 11:43:34;;;;;;;2.97;1.55;;;;;;;;;;8356667;28;20470;-61
2022/06/13 11:47:42;;;;;;;4.63;1.67;;;;;;;;;;8359497;28;20536;-61
2022/06/13 11:51:48;;;;;;;3.97;1.38;;;;;;;;;;8356122;28;20166;-61
2022/06/13 11:55:52;;;;;;;4.40;1.67;;;;;;;;;;8355378;28;20090;-61
2022/06/13 11:59:55;;;;;;;2.92;1.40;;;;;;;;;;8356455;28;20048;-61
2022/06/13 12:03:59;;;;;;;5.53;1.58;;;;;;;;;;8357991;28;20178;-61
2022/06/13 12:08:01;;;;;;;5.43;1.80;;;;;;;;;;8356861;28;20055;-61
2022/06/13 12:12:07;;;;;;;4.93;1.70;;;;;;;;;;8354282;28;20032;-61
2022/06/13 12:16:26;;;;;;;4.07;1.70;;;;;;;;;;8353663;28;20140;-61
2022/06/13 12:20:45;;;;;;;3.25;1.48;;;;;;;;;;8355626;28;20109;-61
2022/06/13 12:24:57;;;;;;;3.05;1.63;;;;;;;;;;8353532;28;20028;-62
2022/06/13 12:29:06;;;;;;;8.20;1.73;;;;;;;;;;8354284;28;20074;-61
2022/06/13 12:33:17;;;;;;;3.45;1.50;;;;;;;;;;8353747;28;20078;-61
2022/06/13 12:37:20;;;;;;;3.42;1.80;;;;;;;;;;8357258;28;20108;-62
2022/06/13 12:41:41;;;;;;;3.15;1.50;;;;;;;;;;8354478;28;20035;-60
2022/06/13 12:45:44;;;;;;;2.92;1.52;;;;;;;;;;8349967;28;20485;-61
2022/06/13 12:49:47;;;;;;;3.25;1.42;;;;;;;;;;8355417;28;20470;-61
2022/06/13 12:54:10;;;;;;;3.75;1.50;;;;;;;;;;8354080;28;20899;-61
2022/06/13 12:58:29;;;;;;;3.20;1.73;;;;;;;;;;8352390;28;20111;-61
2022/06/13 13:02:48;;;;;;;2.58;1.80;;;;;;;;;;8352610;28;20051;-61
2022/06/13 13:07:03;;;;;;;4.15;1.40;;;;;;;;;;8354780;28;20111;-61
2022/06/13 13:11:06;;;;;;;5.18;1.77;;;;;;;;;;8352455;28;20100;-61
2022/06/13 13:15:11;;;;;;;3.85;1.73;;;;;;;;;;8350518;28;20483;-61
2022/06/13 13:19:11;;;;;;;4.55;1.65;;;;;;;;;;8349817;28;20087;-61
2022/06/13 13:23:12;;;;;;;2.92;1.65;;;;;;;;;;8304694;28;1365035;-61
2022/06/13 13:27:14;;;;;;;3.80;1.75;;;;;;;;;;8352835;28;20955;-60
2022/06/13 13:31:21;;;;;;;5.43;1.80;;;;;;;;;;8346274;28;20145;-61
2022/06/13 13:35:21;;;;;;;4.78;2.00;;;;;;;;;;8350186;28;20040;-61
2022/06/13 13:39:28;;;;;;;4.88;2.10;;;;;;;;;;8347517;28;20035;-60
2022/06/13 13:43:32;;;;;;;5.45;1.73;;;;;;;;;;8351421;28;20021;-61
2022/06/13 13:47:34;;;;;;;3.42;1.50;;;;;;;;;;8349461;28;20045;-60
2022/06/13 13:51:37;;;;;;;4.28;1.70;;;;;;;;;;8347331;28;20131;-60
2022/06/13 13:55:40;;;;;;;3.60;1.60;;;;;;;;;;8349163;28;20064;-61
2022/06/13 13:59:44;;;;;;;3.72;1.50;;;;;;;;;;8348221;28;20024;-61
2022/06/13 14:03:52;;;;;;;6.82;1.90;;;;;;;;;;8348671;28;20128;-60
2022/06/13 14:07:58;;;;;;;12.90;2.10;;;;;;;;;;8346180;28;20055;-61
2022/06/13 14:12:08;;;;;;;5.60;1.90;;;;;;;;;;8349109;28;20113;-60
2022/06/13 14:16:08;;;;;;;3.92;1.90;;;;;;;;;;8349324;28;20025;-60
2022/06/13 14:20:18;;;;;;;4.78;2.10;;;;;;;;;;8349794;28;20051;-66
2022/06/13 14:24:20;;;;;;;3.00;1.80;;;;;;;;;;8350855;28;20032;-60
2022/06/13 14:28:21;;;;;;;5.00;2.00;;;;;;;;;;8368790;28;20056;-61
2022/06/13 14:32:27;;;;;;;3.17;1.75;;;;;;;;;;8345677;28;20041;-61
2022/06/13 14:36:47;;;;;;;5.90;1.85;;;;;;;;;;8349759;28;20735;-60
2022/06/13 14:40:57;;;;;;;3.60;1.80;;;;;;;;;;8348588;28;20529;-60
2022/06/13 14:45:00;;;;;;;6.13;2.00;;;;;;;;;;8349011;28;20024;-61
2022/06/13 14:49:09;;;;;;;2.95;1.83;;;;;;;;;;8350919;28;20043;-60
2022/06/13 14:53:25;;;;;;;5.05;1.80;;;;;;;;;;8346369;28;20029;-61
2022/06/13 14:57:28;;;;;;;5.15;2.15;;;;;;;;;;8352512;28;20020;-61
2022/06/13 15:01:33;;;;;;;6.05;1.83;;;;;;;;;;8349181;28;20043;-61
2022/06/13 15:05:36;;;;;;;4.45;2.00;;;;;;;;;;8352209;28;20040;-60
2022/06/13 15:09:45;;;;;;;4.63;1.90;;;;;;;;;;8353452;28;20036;-60
2022/06/13 15:13:45;;;;;;;6.10;2.03;;;;;;;;;;8351190;28;20016;-61
2022/06/13 15:17:46;;;;;;;5.63;2.15;;;;;;;;;;8351174;28;20079;-60
2022/06/13 15:21:55;;;;;;;3.80;1.80;;;;;;;;;;8352480;28;20067;-61
2022/06/13 15:25:55;;;;;;;3.45;1.77;;;;;;;;;;8353124;28;20039;-61
2022/06/13 15:30:14;;;;;;;3.20;2.13;;;;;;;;;;8350546;28;20547;-61
2022/06/13 15:34:16;;;;;;;6.15;2.28;;;;;;;;;;8352730;28;20134;-61
2022/06/13 15:38:19;;;;;;;5.07;2.08;;;;;;;;;;8351635;28;20068;-60
2022/06/13 15:42:21;;;;;;;4.88;1.95;;;;;;;;;;8346152;28;20086;-61
2022/06/13 15:46:23;;;;;;;7.15;2.05;;;;;;;;;;8342290;28;20032;-61
2022/06/13 15:50:24;;;;;;;;;;;;;;;;;;8344859;28;20043;-61
2022/06/13 15:54:24;;;;;;;6.22;2.20;;;;;;;;;;8347122;28;20491;-61
2022/06/13 15:58:26;;;;;;;3.93;1.97;;;;;;;;;;8345054;28;20077;-61
2022/06/13 16:02:43;;;;;;;6.60;2.08;;;;;;;;;;8344029;28;20493;-61
2022/06/13 16:06:45;;;;;;;3.28;1.70;;;;;;;;;;8346695;28;20035;-62
2022/06/13 16:10:47;;;;;;;5.60;1.87;;;;;;;;;;8346883;28;20167;-61
2022/06/13 16:14:49;;;;;;;7.30;2.15;;;;;;;;;;8346579;28;20044;-61
2022/06/13 16:18:50;;;;;;;5.53;2.13;;;;;;;;;;8353784;28;20363;-61
2022/06/13 16:22:52;;;;;;;5.70;2.10;;;;;;;;;;8352545;28;20056;-62
2022/06/13 16:26:52;;;;;;;5.57;2.30;;;;;;;;;;8353216;28;20082;-61
2022/06/13 16:30:54;;;;;;;7.43;2.20;;;;;;;;;;8351790;28;20147;-62
2022/06/13 16:34:56;;;;;;;4.85;2.30;;;;;;;;;;8351125;28;20028;-61
2022/06/13 16:38:58;;;;;;;4.63;2.50;;;;;;;;;;8349886;28;20530;-61
2022/06/13 16:42:59;;;;;;;5.57;2.30;;;;;;;;;;8349950;28;20025;-61
2022/06/13 16:47:01;;;;;;;5.53;2.30;;;;;;;;;;8346464;28;20029;-62
2022/06/13 16:51:04;;;;;;;5.35;2.35;;;;;;;;;;8348280;28;20046;-61
2022/06/13 16:55:06;;;;;;;7.18;2.78;;;;;;;;;;8347861;28;20089;-61
2022/06/13 16:59:06;;;;;;;7.03;2.50;;;;;;;;;;8346639;28;20469;-61
2022/06/13 17:03:07;;;;;;;5.53;2.35;;;;;;;;;;8347564;28;20347;-61
2022/06/13 17:07:10;;;;;;;6.67;2.67;;;;;;;;;;8350226;28;20040;-61
2022/06/13 17:11:11;;;;;;;6.65;2.33;;;;;;;;;;8348232;28;20360;-62
2022/06/13 17:15:11;;;;;;;6.78;2.30;;;;;;;;;;8346537;28;20036;-61
2022/06/13 17:19:15;;;;;;;5.18;2.28;;;;;;;;;;8345350;28;20389;-61
2022/06/13 17:23:16;;;;;;;4.53;2.30;;;;;;;;;;8348232;28;20061;-61
2022/06/13 17:35:54;;;;;;;6.70;2.20;;;;;;;;;;8349596;28;21078;-61
2022/06/13 17:39:54;;;;;;;7.03;2.40;;;;;;;;;;8348917;28;20052;-61
2022/06/13 17:43:55;;;;;;;5.00;2.30;;;;;;;;;;8345234;28;20052;-61
2022/06/13 17:47:56;;;;;;;6.50;2.40;;;;;;;;;;8347772;28;20041;-61
2022/06/13 17:51:56;;;;;;;5.50;2.33;;;;;;;;;;8343645;28;20497;-62
2022/06/13 17:55:56;;;;;;;6.50;2.50;;;;;;;;;;8346064;28;20021;-62
2022/06/13 17:59:57;;;;;;;6.65;2.30;;;;;;;;;;8341626;28;20027;-61
2022/06/13 18:03:58;;;;;;;3.83;1.90;;;;;;;;;;8343970;28;20517;-61
2022/06/13 18:07:59;;;;;;;6.72;2.15;;;;;;;;;;8344660;28;20119;-61
2022/06/13 18:11:59;;;;;;;7.43;2.38;;;;;;;;;;8344557;28;20028;-61
2022/06/13 18:15:59;;;;;;;5.80;2.20;;;;;;;;;;8343224;28;20043;-62
2022/06/13 18:20:00;;;;;;;4.10;2.13;;;;;;;;;;8342533;28;20017;-61
2022/06/13 18:24:00;;;;;;;4.40;2.00;;;;;;;;;;8344204;28;20044;-61
2022/06/13 18:28:00;;;;;;;6.65;2.20;;;;;;;;;;8343273;28;20021;-61
2022/06/13 18:32:02;;;;;;;4.38;2.10;;;;;;;;;;8340543;28;20345;-61
2022/06/13 18:36:03;;;;;;;8.25;2.28;;;;;;;;;;8345942;28;20013;-62
2022/06/13 18:40:05;;;;;;;6.05;2.05;;;;;;;;;;8343804;28;20020;-61
2022/06/13 18:44:07;;;;;;;4.25;2.05;;;;;;;;;;8344938;28;20166;-61
2022/06/13 18:48:07;;;;;;;4.47;1.95;;;;;;;;;;8344327;28;20539;-61
2022/06/13 18:52:07;;;;;;;4.47;2.10;;;;;;;;;;8344407;28;20025;-61
2022/06/13 18:56:08;;;;;;;4.63;2.03;;;;;;;;;;8344309;28;20016;-61
2022/06/13 19:00:16;;;;;;;7.82;2.38;;;;;;;;;;8341569;28;20112;-62
2022/06/13 19:04:18;;;;;;;4.20;1.85;;;;;;;;;;8338770;28;20029;-61
2022/06/13 19:08:19;;;;;;;6.18;1.92;;;;;;;;;;8340754;28;20127;-61
2022/06/13 19:12:20;;;;;;;4.95;1.83;;;;;;;;;;8343786;28;20056;-61
2022/06/13 19:16:21;;;;;;;2.78;1.60;;;;;;;;;;8342412;28;20493;-61
2022/06/13 19:20:23;;;;;;;2.92;1.70;;;;;;;;;;8341912;28;20472;-61
2022/06/13 19:24:23;;;;;;;4.70;1.80;;;;;;;;;;8342766;28;20461;-60
2022/06/13 19:28:27;;;;;;;5.07;1.90;;;;;;;;;;8338240;28;20024;-60
2022/06/13 19:32:27;;;;;;;;;;;;;;;;;;8340840;28;20037;-60
2022/06/13 19:36:28;;;;;;;4.93;1.67;;;;;;;;;;8343739;28;20793;-61
2022/06/13 19:40:31;;;;;;;5.68;1.75;;;;;;;;;;8341449;28;20360;-61
2022/06/13 19:44:32;;;;;;;4.15;1.67;;;;;;;;;;8340744;28;20441;-61
2022/06/13 19:48:32;;;;;;;2.83;1.58;;;;;;;;;;8344070;28;20110;-61
2022/06/13 19:56:52;;;;;;;2.78;1.60;;;;;;;;;;8350503;28;20451;-60
2022/06/13 20:00:53;;;;;;;4.20;1.52;;;;;;;;;;8357795;28;20036;-60
2022/06/13 20:04:53;;;;;;;4.75;1.50;;;;;;;;;;8347610;28;20024;-61
2022/06/13 20:08:53;;;;;;;3.40;1.45;;;;;;;;;;8349545;28;20870;-61
2022/06/13 20:12:55;;;;;;;3.20;1.40;;;;;;;;;;8346084;28;20899;-60
2022/06/13 20:16:58;;;;;;;4.28;1.95;;;;;;;;;;8346676;28;20079;-60
2022/06/13 20:20:59;;;;;;;3.03;1.40;;;;;;;;;;8348638;28;20492;-61
2022/06/13 20:24:59;;;;;;;4.75;1.40;;;;;;;;;;8350424;28;20094;-61
2022/06/13 20:28:59;;;;;;;2.45;1.38;;;;;;;;;;8346237;28;20312;-61
2022/06/13 20:32:59;;;;;;;2.95;1.55;;;;;;;;;;8349723;28;20070;-60
2022/06/13 20:37:01;;;;;;;4.40;1.40;;;;;;;;;;8347008;28;20406;-60
2022/06/13 20:41:03;;;;;;;4.22;1.40;;;;;;;;;;8343456;28;20028;-60
2022/06/13 20:45:04;;;;;;;2.92;1.25;;;;;;;;;;8352361;28;20033;-62
2022/06/13 20:49:06;;;;;;;4.50;1.45;;;;;;;;;;8356173;28;20033;-60
2022/06/13 20:53:07;;;;;;;3.40;1.30;;;;;;;;;;8354743;28;20033;-61
2022/06/13 20:57:08;;;;;;;4.45;1.30;;;;;;;;;;8357225;28;20021;-61
2022/06/13 21:01:10;;;;;;;3.05;1.45;;;;;;;;;;8353360;28;20058;-60
2022/06/13 21:05:11;;;;;;;4.03;1.30;;;;;;;;;;8357530;28;20139;-61
2022/06/13 21:13:35;;;;;;;2.30;1.40;;;;;;;;;;8354067;28;20081;-61
2022/06/13 21:17:35;;;;;;;3.10;1.30;;;;;;;;;;8355607;28;20271;-61
2022/06/13 21:21:35;;;;;;;5.03;1.92;;;;;;;;;;8353987;28;20029;-60
2022/06/13 21:25:36;;;;;;;2.63;1.63;;;;;;;;;;8356716;28;20499;-61
2022/06/13 21:29:38;;;;;;;2.17;1.40;;;;;;;;;;8356046;28;20032;-60
2022/06/13 21:33:38;;;;;;;3.10;1.42;;;;;;;;;;8353792;28;20117;-61
2022/06/13 21:37:39;;;;;;;7.13;1.80;;;;;;;;;;8355647;28;20020;-61
2022/06/13 21:41:41;;;;;;;7.10;1.50;;;;;;;;;;8356137;28;20063;-61
2022/06/13 21:45:42;;;;;;;2.65;1.23;;;;;;;;;;8355412;28;20309;-60
2022/06/13 21:49:42;;;;;;;2.85;1.33;;;;;;;;;;8355008;28;20024;-60
2022/06/13 21:53:44;;;;;;;2.67;1.30;;;;;;;;;;8354601;28;21102;-60
2022/06/13 21:57:45;;;;;;;4.63;1.48;;;;;;;;;;8355877;28;20028;-60
2022/06/13 22:01:45;;;;;;;4.20;1.45;;;;;;;;;;8355808;28;20032;-60
2022/06/13 22:05:46;;;;;;;2.90;1.33;;;;;;;;;;8355218;28;20036;-60
2022/06/13 22:09:46;;;;;;;3.47;1.30;;;;;;;;;;8354153;28;20317;-60
2022/06/13 22:13:47;;;;;;;2.40;1.25;;;;;;;;;;8353591;28;20024;-60
2022/06/13 22:17:47;;;;;;;3.47;1.38;;;;;;;;;;8355774;28;20068;-60
2022/06/13 22:21:47;;;;;;;7.00;1.80;;;;;;;;;;8355115;28;20029;-60
2022/06/13 22:25:48;;;;;;;5.72;1.50;;;;;;;;;;8354943;28;20063;-61
2022/06/13 22:29:49;;;;;;;2.92;1.40;;;;;;;;;;8353518;28;20020;-61
2022/06/13 22:33:49;;;;;;;3.75;1.30;;;;;;;;;;8353320;28;20074;-60
2022/06/13 22:37:50;;;;;;;3.53;1.60;;;;;;;;;;8354295;28;20096;-60
2022/06/13 22:41:52;;;;;;;2.05;1.30;;;;;;;;;;8354177;28;20012;-61
2022/06/13 22:45:52;;;;;;;4.32;1.20;;;;;;;;;;8353886;28;20039;-61
2022/06/13 22:49:53;;;;;;;3.22;1.48;;;;;;;;;;8354091;28;20051;-61
2022/06/13 22:53:54;;;;;;;2.28;1.40;;;;;;;;;;8353128;28;20103;-60
2022/06/13 22:57:54;;;;;;;3.65;1.50;;;;;;;;;;8352586;28;20017;-60
2022/06/13 23:01:58;;;;;;;3.73;1.40;;;;;;;;;;8350987;28;20757;-61
2022/06/13 23:05:58;;;;;;;2.50;1.27;;;;;;;;;;8353167;28;20909;-61
2022/06/13 23:09:59;;;;;;;2.92;1.13;;;;;;;;;;8352547;28;20530;-60
2022/06/13 23:13:59;;;;;;;3.28;1.30;;;;;;;;;;8350942;28;20035;-61
2022/06/13 23:17:59;;;;;;;4.68;1.30;;;;;;;;;;8351719;28;20029;-60
2022/06/13 23:21:59;;;;;;;3.67;1.50;;;;;;;;;;8351007;28;20028;-60
2022/06/13 23:26:00;;;;;;;1.73;1.08;;;;;;;;;;8357193;28;20020;-61
2022/06/13 23:30:00;;;;;;;3.63;1.25;;;;;;;;;;8360458;28;20062;-61
2022/06/13 23:34:00;;;;;;;5.80;1.17;;;;;;;;;;8359103;28;20036;-60
2022/06/13 23:38:00;;;;;;;1.40;1.00;;;;;;;;;;8360332;28;20024;-61
2022/06/13 23:42:01;;;;;;;1.63;1.17;;;;;;;;;;8360042;28;20024;-60
2022/06/13 23:46:01;;;;;;;1.98;1.30;;;;;;;;;;8359502;28;20101;-60
2022/06/13 23:50:03;;;;;;;3.28;1.33;;;;;;;;;;8357916;28;20105;-61
2022/06/13 23:54:03;;;;;;;2.28;1.20;;;;;;;;;;8358156;28;20136;-61
2022/06/13 23:58:04;;;;;;;2.17;1.20;;;;;;;;;;8357200;28;20891;-60
